createdAt,value
2023-05-08T00:01:33.818Z,100692.34
2023-05-08T00:04:03.287Z,100655.50
2023-05-08T00:06:33.828Z,100731.25
2023-05-08T00:09:04.579Z,100689.34
2023-05-08T00:11:31.580Z,100645.75
2023-05-08T00:14:00.137Z,100651.41
2023-05-08T00:16:30.430Z,100696.31
2023-05-08T00:19:01.887Z,100666.44
2023-05-08T00:21:30.194Z,100748.09
2023-05-08T00:23:57.987Z,100724.91
2023-05-08T00:26:28.044Z,100733.25
2023-05-08T00:29:05.540Z,100659.59
2023-05-08T00:31:34.985Z,100713.00
2023-05-08T00:34:03.328Z,100745.72
2023-05-08T00:36:34.650Z,100701.66
2023-05-08T00:39:03.022Z,100732.56
2023-05-08T00:41:35.022Z,100643.09
2023-05-08T00:44:03.136Z,100743.06
2023-05-08T00:46:34.901Z,100743.22
2023-05-08T00:49:04.602Z,100741.25
2023-05-08T00:51:36.902Z,100731.72
2023-05-08T00:54:05.442Z,100738.41
2023-05-08T00:56:46.371Z,100740.97
2023-05-08T00:59:18.952Z,100711.53
2023-05-08T01:01:48.788Z,100717.00
2023-05-08T01:04:20.315Z,100688.94
2023-05-08T01:06:47.663Z,100690.75
2023-05-08T01:09:14.848Z,100707.66
2023-05-08T01:12:07.277Z,100728.19
2023-05-08T01:14:58.463Z,100714.63
2023-05-08T01:18:02.105Z,100734.72
2023-05-08T01:20:46.910Z,100751.13
2023-05-08T01:24:10.123Z,100755.44
2023-05-08T01:26:57.818Z,100761.00
2023-05-08T01:30:04.066Z,100761.34
2023-05-08T01:32:36.702Z,100768.81
2023-05-08T01:35:28.520Z,100764.53
2023-05-08T01:38:13.357Z,100757.09
2023-05-08T01:40:54.310Z,100730.81
2023-05-08T01:46:19.177Z,100770.69
2023-05-08T01:49:08.315Z,100762.94
2023-05-08T01:51:47.645Z,100760.97
2023-05-08T01:54:22.988Z,100744.13
2023-05-08T01:56:52.840Z,100780.47
2023-05-08T01:59:24.795Z,100779.44
2023-05-08T02:01:57.172Z,100774.28
2023-05-08T02:04:27.469Z,100759.66
2023-05-08T02:06:59.254Z,100776.88
2023-05-08T02:09:27.323Z,100756.56
2023-05-08T02:11:55.868Z,100785.38
2023-05-08T02:14:25.936Z,100780.13
2023-05-08T02:16:56.162Z,100769.28
2023-05-08T02:19:25.220Z,100784.84
2023-05-08T02:21:53.452Z,100776.84
2023-05-08T02:24:21.312Z,100780.19
2023-05-08T02:26:52.015Z,100751.44
2023-05-08T02:29:19.676Z,100733.63
2023-05-08T02:31:47.925Z,100802.59
2023-05-08T02:34:18.820Z,100746.84
2023-05-08T02:36:46.146Z,100788.13
2023-05-08T02:39:15.142Z,100808.84
2023-05-08T02:41:44.722Z,100801.25
2023-05-08T02:44:12.256Z,100813.53
2023-05-08T02:46:57.368Z,100811.03
2023-05-08T02:49:55.514Z,100797.22
2023-05-08T02:52:30.601Z,100809.81
2023-05-08T02:55:02.548Z,100818.72
2023-05-08T02:57:54.107Z,100821.31
2023-05-08T03:00:39.477Z,100825.00
2023-05-08T03:03:20.443Z,100789.25
2023-05-08T03:05:54.844Z,100820.69
2023-05-08T03:08:35.423Z,100809.88
2023-05-08T03:11:19.448Z,100797.44
2023-05-08T03:13:48.296Z,100801.38
2023-05-08T03:16:25.687Z,100793.00
2023-05-08T03:19:01.218Z,100816.16
2023-05-08T03:21:30.673Z,100813.56
2023-05-08T03:24:03.036Z,100806.78
2023-05-08T03:26:33.429Z,100811.16
2023-05-08T03:29:00.938Z,100811.31
2023-05-08T03:31:29.713Z,100812.28
2023-05-08T03:33:56.997Z,100808.13
2023-05-08T03:36:27.320Z,100816.97
2023-05-08T03:38:58.360Z,100812.78
2023-05-08T03:41:26.852Z,100810.19
2023-05-08T03:43:56.073Z,100812.06
2023-05-08T03:46:26.723Z,100804.88
2023-05-08T03:48:55.068Z,100821.34
2023-05-08T03:51:22.728Z,100821.44
2023-05-08T03:53:49.331Z,100818.78
2023-05-08T03:56:16.120Z,100830.28
2023-05-08T03:59:00.672Z,100823.00
2023-05-08T04:01:44.332Z,100829.06
2023-05-08T04:04:21.211Z,100820.34
2023-05-08T04:06:59.708Z,100826.69
2023-05-08T04:09:27.346Z,100839.09
2023-05-08T04:12:03.894Z,100840.91
2023-05-08T04:14:57.146Z,100831.13
2023-05-08T04:17:41.197Z,100843.81
2023-05-08T04:20:18.298Z,100842.25
2023-05-08T04:22:48.860Z,100831.75
2023-05-08T04:25:17.485Z,100842.97
2023-05-08T04:27:45.505Z,100817.13
2023-05-08T04:30:13.315Z,100824.72
2023-05-08T04:32:46.509Z,100826.72
2023-05-08T04:35:14.401Z,100840.53
2023-05-08T04:37:45.493Z,100846.56
2023-05-08T04:40:38.747Z,100842.69
2023-05-08T04:43:06.160Z,100832.84
2023-05-08T04:45:32.921Z,100837.38
2023-05-08T04:48:04.690Z,100815.16
2023-05-08T04:53:22.271Z,100814.22
2023-05-08T04:55:49.288Z,100828.16
2023-05-08T04:58:16.710Z,100848.97
2023-05-08T05:00:46.650Z,100844.13
2023-05-08T05:03:13.486Z,100858.84
2023-05-08T05:05:44.364Z,100861.56
2023-05-08T05:08:14.055Z,100850.44
2023-05-08T05:13:25.195Z,100861.25
2023-05-08T05:15:56.849Z,100845.97
2023-05-08T05:18:23.549Z,100834.88
2023-05-08T05:20:50.835Z,100873.53
2023-05-08T05:23:18.349Z,100822.81
2023-05-08T05:25:45.190Z,100879.84
2023-05-08T05:28:12.315Z,100877.28
2023-05-08T05:30:41.942Z,100886.91
2023-05-08T05:33:11.277Z,100862.00
2023-05-08T05:35:37.927Z,100842.13
2023-05-08T05:38:43.448Z,100882.44
2023-05-08T05:41:10.395Z,100859.19
2023-05-08T05:43:39.116Z,100870.84
2023-05-08T05:46:08.115Z,100878.75
2023-05-08T05:48:37.262Z,100898.72
2023-05-08T05:51:05.992Z,100901.19
2023-05-08T05:53:39.661Z,100886.72
2023-05-08T05:56:09.071Z,100902.25
2023-05-08T05:58:45.062Z,100907.56
2023-05-08T06:01:22.357Z,100907.31
2023-05-08T06:03:57.080Z,100881.78
2023-05-08T06:09:14.985Z,100897.03
2023-05-08T06:11:46.093Z,100907.72
2023-05-08T06:14:12.742Z,100871.69
2023-05-08T06:16:40.164Z,100870.13
2023-05-08T06:19:12.849Z,100884.03
2023-05-08T06:24:21.140Z,100900.34
2023-05-08T06:26:48.396Z,100908.06
2023-05-08T06:29:18.009Z,100913.84
2023-05-08T06:31:45.741Z,100899.25
2023-05-08T06:37:05.588Z,100933.84
2023-05-08T06:39:37.386Z,100903.13
2023-05-08T06:42:10.074Z,100924.50
2023-05-08T06:44:38.928Z,100927.97
2023-05-08T06:47:17.236Z,100900.28
2023-05-08T06:49:48.469Z,100917.22
2023-05-08T06:52:17.777Z,100933.50
2023-05-08T06:57:36.656Z,100933.34
2023-05-08T07:00:07.880Z,100919.19
2023-05-08T07:02:48.111Z,100930.25
2023-05-08T07:05:15.463Z,100927.09
2023-05-08T07:07:48.827Z,100911.91
2023-05-08T07:10:25.070Z,100907.94
2023-05-08T07:12:59.482Z,100922.34
2023-05-08T07:15:36.513Z,100922.56
2023-05-08T07:18:04.209Z,100884.22
2023-05-08T07:20:34.763Z,100921.31
2023-05-08T07:23:17.518Z,100925.63
2023-05-08T07:25:44.020Z,100925.94
2023-05-08T07:28:13.658Z,100931.09
2023-05-08T07:30:41.078Z,100894.22
2023-05-08T07:35:59.523Z,100932.25
2023-05-08T07:38:30.769Z,100908.78
2023-05-08T07:40:58.543Z,100933.69
2023-05-08T07:43:26.290Z,100928.28
2023-05-08T07:45:56.246Z,100919.13
2023-05-08T07:48:24.295Z,100937.97
2023-05-08T07:50:51.275Z,100934.22
2023-05-08T07:53:21.761Z,100928.03
2023-05-08T07:55:50.106Z,100923.91
2023-05-08T07:58:37.198Z,100930.06
2023-05-08T08:01:07.334Z,100938.53
2023-05-08T08:03:38.437Z,100931.56
2023-05-08T08:06:05.935Z,100927.16
2023-05-08T08:11:15.674Z,100933.56
2023-05-08T08:13:42.190Z,100938.03
2023-05-08T08:18:51.151Z,100919.25
2023-05-08T08:21:18.874Z,100925.13
2023-05-08T08:23:50.139Z,100926.00
2023-05-08T08:26:17.278Z,100912.22
2023-05-08T08:28:43.855Z,100932.38
2023-05-08T08:31:15.057Z,100888.72
2023-05-08T08:33:48.280Z,100921.28
2023-05-08T08:39:00.864Z,100922.91
2023-05-08T08:41:30.787Z,100920.41
2023-05-08T08:43:59.443Z,100912.94
2023-05-08T08:46:32.614Z,100926.41
2023-05-08T08:49:06.400Z,100911.22
2023-05-08T08:51:46.142Z,100916.72
2023-05-08T08:54:18.521Z,100924.22
2023-05-08T08:56:53.004Z,100918.19
2023-05-08T09:05:33.637Z,100939.16
2023-05-08T09:08:01.763Z,100938.03
2023-05-08T09:10:39.378Z,100941.47
2023-05-08T09:13:17.353Z,100950.00
2023-05-08T09:15:49.865Z,100901.66
2023-05-08T09:18:26.677Z,100921.41
2023-05-08T09:20:53.254Z,100947.75
2023-05-08T09:23:20.000Z,100947.16
2023-05-08T09:28:30.957Z,100928.56
2023-05-08T09:31:03.414Z,100950.97
2023-05-08T09:33:35.724Z,100927.81
2023-05-08T09:36:29.486Z,100933.66
2023-05-08T09:38:56.084Z,100948.78
2023-05-08T09:41:25.312Z,100956.63
2023-05-08T09:44:13.283Z,100962.38
2023-05-08T09:46:40.617Z,100969.44
2023-05-08T09:49:18.509Z,100971.34
2023-05-08T09:52:15.083Z,100968.69
2023-05-08T09:54:42.792Z,100967.13
2023-05-08T09:57:17.587Z,100965.56
2023-05-08T10:02:29.899Z,100975.91
2023-05-08T10:04:58.072Z,100976.22
2023-05-08T10:07:40.473Z,100952.47
2023-05-08T10:10:07.563Z,100959.63
2023-05-08T10:12:34.177Z,100939.41
2023-05-08T10:15:02.376Z,100961.31
2023-05-08T10:17:34.817Z,100977.06
2023-05-08T10:20:10.801Z,100953.78
2023-05-08T10:22:41.600Z,100969.75
2023-05-08T10:25:12.779Z,100943.41
2023-05-08T10:28:23.906Z,100964.31
2023-05-08T10:30:50.851Z,100930.91
2023-05-08T10:33:23.324Z,100953.41
2023-05-08T10:38:38.491Z,100954.28
2023-05-08T10:41:27.551Z,100943.22
2023-05-08T10:44:00.578Z,100962.19
2023-05-08T10:46:43.440Z,100953.47
2023-05-08T10:49:23.389Z,100922.44
2023-05-08T10:52:02.162Z,100961.69
2023-05-08T10:54:40.087Z,100958.81
2023-05-08T10:57:18.889Z,100951.22
2023-05-08T10:59:47.314Z,100944.81
2023-05-08T11:05:24.091Z,100942.97
2023-05-08T11:08:01.305Z,100947.13
2023-05-08T11:10:34.587Z,100932.13
2023-05-08T11:13:12.800Z,100943.28
2023-05-08T11:15:43.876Z,100940.00
2023-05-08T11:18:17.506Z,100947.19
2023-05-08T11:21:11.135Z,100938.94
2023-05-08T11:23:38.893Z,100938.78
2023-05-08T11:26:22.767Z,100938.19
2023-05-08T11:28:56.724Z,100913.84
2023-05-08T11:31:46.489Z,100921.50
2023-05-08T11:34:45.780Z,100945.97
2023-05-08T11:37:28.987Z,100944.47
2023-05-08T11:40:38.748Z,100933.22
2023-05-08T11:43:28.791Z,100933.13
2023-05-08T11:46:11.127Z,100930.97
2023-05-08T11:48:40.851Z,100933.53
2023-05-08T11:53:50.051Z,100921.78
2023-05-08T11:56:17.193Z,100923.78
2023-05-08T11:58:51.824Z,100924.34
2023-05-08T12:07:03.244Z,100926.75
2023-05-08T12:09:37.422Z,100915.72
2023-05-08T12:12:08.858Z,100922.44
2023-05-08T12:14:35.862Z,100914.63
2023-05-08T12:17:07.775Z,100920.88
2023-05-08T12:19:34.554Z,100926.41
2023-05-08T12:22:02.181Z,100914.69
2023-05-08T12:24:31.428Z,100925.22
2023-05-08T12:26:58.645Z,100904.75
2023-05-08T12:29:26.740Z,100918.97
2023-05-08T12:31:55.931Z,100910.28
2023-05-08T12:37:05.669Z,100915.91
2023-05-08T12:39:42.954Z,100918.94
2023-05-08T12:42:12.965Z,100911.50
2023-05-08T12:44:40.241Z,100916.28
2023-05-08T12:47:14.032Z,100912.31
2023-05-08T12:49:52.326Z,100888.75
2023-05-08T12:52:22.140Z,100893.94
2023-05-08T12:54:50.506Z,100907.63
2023-05-08T12:57:24.923Z,100895.91
2023-05-08T13:00:05.105Z,100894.06
2023-05-08T13:02:39.260Z,100897.25
2023-05-08T13:05:14.154Z,100891.34
2023-05-08T13:07:43.295Z,100894.34
2023-05-08T13:10:48.396Z,100884.34
2023-05-08T13:18:54.012Z,100873.84
2023-05-08T13:24:10.870Z,100873.91
2023-05-08T13:26:37.630Z,100870.09
2023-05-08T13:29:09.256Z,100861.94
2023-05-08T13:31:39.074Z,100861.06
2023-05-08T13:34:07.835Z,100876.25
2023-05-08T13:36:58.890Z,100882.31
2023-05-08T13:39:44.686Z,100840.41
2023-05-08T13:42:12.299Z,100876.75
2023-05-08T13:44:40.979Z,100873.78
2023-05-08T13:47:07.985Z,100855.34
2023-05-08T13:49:37.728Z,100866.22
2023-05-08T13:52:04.858Z,100838.06
2023-05-08T13:54:33.563Z,100817.69
2023-05-08T13:57:01.224Z,100847.75
2023-05-08T13:59:40.889Z,100858.09
2023-05-08T14:02:13.188Z,100860.06
2023-05-08T14:04:41.352Z,100820.44
2023-05-08T14:07:11.598Z,100802.31
2023-05-08T14:09:42.497Z,100851.81
2023-05-08T14:12:10.798Z,100808.56
2023-05-08T14:14:40.890Z,100852.69
2023-05-08T14:17:16.628Z,100807.22
2023-05-08T14:19:49.504Z,100855.44
2023-05-08T14:22:18.513Z,100844.91
2023-05-08T14:25:03.074Z,100846.25
2023-05-08T14:27:34.560Z,100834.22
2023-05-08T14:30:08.899Z,100807.03
2023-05-08T14:35:40.241Z,100843.59
2023-05-08T14:38:19.273Z,100837.22
2023-05-08T14:47:21.001Z,100826.28
2023-05-08T14:49:50.170Z,100795.91
2023-05-08T14:52:16.871Z,100809.75
2023-05-08T14:57:37.155Z,100804.03
2023-05-08T15:00:04.579Z,100791.31
2023-05-08T15:02:32.492Z,100802.09
2023-05-08T15:05:06.146Z,100812.84
2023-05-08T15:07:36.735Z,100815.28
2023-05-08T15:10:04.637Z,100793.53
2023-05-08T15:12:32.732Z,100789.09
2023-05-08T15:15:02.591Z,100787.91
2023-05-08T15:17:36.950Z,100805.75
2023-05-08T15:20:05.059Z,100803.06
2023-05-08T15:25:25.065Z,100806.72
2023-05-08T15:27:55.931Z,100804.28
2023-05-08T15:33:06.924Z,100811.66
2023-05-08T15:35:39.027Z,100809.50
2023-05-08T15:38:09.596Z,100810.47
2023-05-08T15:40:36.402Z,100796.41
2023-05-08T15:43:04.219Z,100795.53
2023-05-08T15:59:36.719Z,100830.28
2023-05-08T16:02:14.888Z,100823.28
2023-05-08T16:04:50.025Z,100834.88
2023-05-08T16:07:18.323Z,100824.03
2023-05-08T16:09:49.233Z,100833.94
2023-05-08T16:12:17.654Z,100818.28
2023-05-08T16:14:45.900Z,100830.59
2023-05-08T16:17:18.449Z,100814.41
2023-05-08T16:19:53.195Z,100838.25
2023-05-08T16:22:20.023Z,100842.94
2023-05-08T16:25:00.039Z,100838.63
2023-05-08T16:27:34.820Z,100796.91
2023-05-08T16:30:07.937Z,100820.59
2023-05-08T16:35:18.491Z,100835.84
2023-05-08T16:37:46.761Z,100837.03
2023-05-08T16:40:16.389Z,100826.00
2023-05-08T16:42:45.218Z,100829.22
2023-05-08T16:45:16.201Z,100834.06
2023-05-08T16:47:46.738Z,100827.22
2023-05-08T16:50:13.860Z,100822.09
2023-05-08T16:52:43.733Z,100810.09
2023-05-08T16:55:13.558Z,100778.72
2023-05-08T16:57:51.362Z,100810.44
2023-05-08T17:00:33.735Z,100774.38
2023-05-08T17:03:14.708Z,100779.97
2023-05-08T17:08:53.037Z,100822.50
2023-05-08T17:11:43.236Z,100769.50
2023-05-08T17:14:19.503Z,100818.31
2023-05-08T17:16:57.821Z,100819.50
2023-05-08T17:22:50.179Z,100807.53
2023-05-08T17:25:20.490Z,100776.81
2023-05-08T17:27:50.733Z,100809.34
2023-05-08T17:30:25.230Z,100810.44
2023-05-08T17:32:53.212Z,100767.19
2023-05-08T17:35:33.778Z,100783.16
2023-05-08T17:38:01.123Z,100810.56
2023-05-08T17:40:32.638Z,100814.31
2023-05-08T17:43:03.934Z,100771.50
2023-05-08T17:45:35.167Z,100809.84
2023-05-08T17:48:09.226Z,100768.41
2023-05-08T17:50:40.928Z,100816.50
2023-05-08T17:53:15.760Z,100819.63
2023-05-08T17:55:54.990Z,100764.75
2023-05-08T18:01:43.702Z,100778.88
2023-05-08T18:04:40.934Z,100752.66
2023-05-08T18:07:12.990Z,100728.00
2023-05-08T18:15:17.467Z,100735.84
2023-05-08T18:17:55.347Z,100769.56
2023-05-08T18:20:33.146Z,100738.06
2023-05-08T18:29:17.605Z,100830.53
2023-05-08T18:35:50.301Z,100799.53
2023-05-08T18:38:29.017Z,100817.00
2023-05-08T18:41:01.183Z,100830.38
2023-05-08T18:43:33.627Z,100785.56
2023-05-08T18:46:14.805Z,100810.00
2023-05-08T18:51:35.531Z,100831.31
2023-05-08T18:54:35.961Z,100795.19
2023-05-08T19:05:20.508Z,100801.69
2023-05-08T19:07:47.981Z,100824.41
2023-05-08T19:13:05.927Z,100807.13
2023-05-08T19:15:34.396Z,100862.66
2023-05-08T19:18:04.107Z,100795.16
2023-05-08T19:20:31.211Z,100839.38
2023-05-08T19:23:02.247Z,100831.34
2023-05-08T19:25:37.256Z,100849.81
2023-05-08T19:31:02.912Z,100848.44
2023-05-08T19:33:49.507Z,100815.63
2023-05-08T20:35:02.094Z,100804.97
2023-05-08T20:44:06.743Z,100822.78
2023-05-08T20:46:37.827Z,100822.50
2023-05-08T20:51:47.830Z,100818.72
2023-05-08T20:57:07.233Z,100816.09
2023-05-08T20:59:41.839Z,100816.78
2023-05-08T21:02:09.177Z,100817.13
2023-05-08T21:04:38.992Z,100817.91
2023-05-08T21:07:07.368Z,100808.34
2023-05-08T21:09:34.200Z,100803.00
2023-05-08T21:12:02.297Z,100804.72
2023-05-08T21:14:40.841Z,100805.78
2023-05-08T21:17:10.581Z,100755.25
2023-05-08T21:22:24.254Z,100792.72
2023-05-08T21:24:52.093Z,100757.72
2023-05-08T21:27:31.284Z,100715.16
2023-05-08T21:29:59.921Z,100794.56
2023-05-08T21:32:37.274Z,100793.81
2023-05-08T21:35:07.656Z,100785.50
2023-05-08T21:37:35.230Z,100765.13
2023-05-08T21:40:06.781Z,100794.69
2023-05-08T21:42:33.711Z,100789.94
2023-05-08T21:45:08.922Z,100781.56
2023-05-08T21:47:41.439Z,100798.91
2023-05-08T21:50:09.284Z,100798.13
2023-05-08T21:55:32.161Z,100797.88
2023-05-08T21:58:13.942Z,100764.41
2023-05-08T22:00:48.505Z,100786.94
2023-05-08T22:03:16.785Z,100766.72
2023-05-08T22:05:44.977Z,100759.38
2023-05-08T22:08:18.268Z,100792.28
2023-05-08T22:10:46.766Z,100742.47
2023-05-08T22:13:13.709Z,100770.91
2023-05-08T22:15:41.626Z,100782.34
2023-05-08T22:18:08.838Z,100731.50
2023-05-08T22:20:39.269Z,100737.41
2023-05-08T22:23:06.941Z,100760.88
2023-05-08T22:25:37.577Z,100712.03
2023-05-08T22:28:06.634Z,100761.94
2023-05-08T22:30:33.966Z,100694.13
2023-05-08T22:33:01.490Z,100704.91
2023-05-08T22:35:28.265Z,100752.50
2023-05-08T22:37:55.793Z,100717.19
2023-05-08T22:40:26.368Z,100727.03
2023-05-08T22:43:01.742Z,100747.44
2023-05-08T22:45:30.204Z,100656.50
2023-05-08T22:47:57.225Z,100704.16
2023-05-08T22:50:25.853Z,100737.25
2023-05-08T22:52:53.400Z,100689.09
2023-05-08T22:55:27.581Z,100667.53
2023-05-08T22:58:04.521Z,100726.25
2023-05-08T23:00:40.181Z,100683.88
2023-05-08T23:03:08.923Z,100729.69
2023-05-08T23:05:44.077Z,100729.50
2023-05-08T23:08:15.839Z,100723.00
2023-05-08T23:10:53.687Z,100722.25
2023-05-08T23:13:33.548Z,100720.53
2023-05-08T23:16:06.675Z,100723.97
2023-05-08T23:18:44.996Z,100714.03
2023-05-08T23:21:16.674Z,100679.72
2023-05-08T23:23:53.302Z,100707.66
2023-05-08T23:26:28.276Z,100613.31
2023-05-08T23:29:06.143Z,100702.22
2023-05-08T23:31:35.325Z,100708.41
2023-05-08T23:37:00.448Z,100700.25
2023-05-08T23:39:38.204Z,100597.38
2023-05-08T23:42:11.461Z,100656.47
2023-05-08T23:44:38.517Z,100658.38
2023-05-08T23:47:05.530Z,100643.59
2023-05-08T23:49:32.362Z,100650.34
2023-05-08T23:51:59.128Z,100698.69
2023-05-08T23:54:31.020Z,100609.00
2023-05-08T23:56:58.657Z,100678.69
2023-05-08T23:59:26.780Z,100644.09
